NKS76 KSAN-KVCV
Flight info
| Callsign | NKS76 |
|---|---|
| Flight time | N/A |
| Altitude | 16000 |
| Route | TANNR V186 PDZ/N0352F150 V442 APLES/N0348F140 |
| Aircraft | A321/M-SDE3FGHIRWY/LB1 |
Departure
| Time | 2026-05-05 23:03 |
|---|---|
| Airport | San Diego International Airport (KSAN) |
Arrival
| Time | N/A |
|---|---|
| Airport | Southern California Logistics Airport (KVCV) |
| Time | Latitude | Longitude | Altitude | Speed | Heading |
|---|---|---|---|---|---|
| 2026-05-05 23:03 | 32.89932 | -117.21856 | 8013 ft | 278 kts | 4° |
| 2026-05-05 23:03 | 32.91807 | -117.21613 | 8847 ft | 282 kts | 3° |
| 2026-05-05 23:03 | 32.93781 | -117.21380 | 9710 ft | 286 kts | 2° |
| 2026-05-05 23:04 | 32.95780 | -117.21166 | 10396 ft | 296 kts | 2° |
| 2026-05-05 23:04 | 32.97895 | -117.20957 | 10659 ft | 318 kts | 2° |
| 2026-05-05 23:04 | 33.00170 | -117.20742 | 10900 ft | 339 kts | 2° |
| 2026-05-05 23:04 | 33.02569 | -117.20513 | 11457 ft | 349 kts | 2° |
| 2026-05-05 23:05 | 33.05003 | -117.20280 | 12181 ft | 353 kts | 2° |
| 2026-05-05 23:05 | 33.07460 | -117.20045 | 12945 ft | 356 kts | 2° |
| 2026-05-05 23:05 | 33.09941 | -117.19807 | 13713 ft | 359 kts | 2° |
| 2026-05-05 23:05 | 33.12439 | -117.19564 | 14435 ft | 362 kts | 2° |
| 2026-05-05 23:06 | 33.14960 | -117.19317 | 15137 ft | 365 kts | 2° |
| 2026-05-05 23:06 | 33.17504 | -117.19067 | 15728 ft | 369 kts | 2° |
| 2026-05-05 23:06 | 33.20059 | -117.18817 | 15918 ft | 369 kts | 2° |
| 2026-05-05 23:06 | 33.22659 | -117.18567 | 15967 ft | 382 kts | 2° |
| 2026-05-05 23:07 | 33.25293 | -117.18313 | 15967 ft | 386 kts | 2° |
| 2026-05-05 23:07 | 33.27974 | -117.18052 | 15972 ft | 387 kts | 2° |
| 2026-05-05 23:07 | 33.30657 | -117.17789 | 15963 ft | 387 kts | 2° |
| 2026-05-05 23:07 | 33.33370 | -117.17524 | 15961 ft | 401 kts | 2° |
| 2026-05-05 23:08 | 33.36219 | -117.17248 | 15970 ft | 419 kts | 3° |
| 2026-05-05 23:08 | 33.39147 | -117.16963 | 15960 ft | 423 kts | 3° |
| 2026-05-05 23:08 | 33.42079 | -117.16682 | 15947 ft | 424 kts | 3° |
| 2026-05-05 23:08 | 33.45023 | -117.16623 | 15938 ft | 423 kts | 354° |
| 2026-05-05 23:09 | 33.47898 | -117.17281 | 15941 ft | 420 kts | 342° |
| 2026-05-05 23:09 | 33.50578 | -117.18640 | 15950 ft | 418 kts | 330° |
| 2026-05-05 23:09 | 33.52996 | -117.20553 | 15957 ft | 416 kts | 324° |
| 2026-05-05 23:09 | 33.55373 | -117.22544 | 15957 ft | 418 kts | 324° |
| 2026-05-05 23:10 | 33.57744 | -117.24522 | 15956 ft | 417 kts | 324° |
| 2026-05-05 23:10 | 33.60123 | -117.26503 | 15953 ft | 416 kts | 324° |
| 2026-05-05 23:10 | 33.62505 | -117.28480 | 15928 ft | 416 kts | 325° |
| 2026-05-05 23:10 | 33.64850 | -117.30433 | 15925 ft | 415 kts | 324° |
| 2026-05-05 23:11 | 33.67240 | -117.32423 | 15910 ft | 415 kts | 325° |
| 2026-05-05 23:11 | 33.69595 | -117.34384 | 15912 ft | 415 kts | 324° |
| 2026-05-05 23:11 | 33.71971 | -117.36361 | 15945 ft | 417 kts | 325° |
| 2026-05-05 23:11 | 33.74356 | -117.38349 | 15943 ft | 417 kts | 325° |
| 2026-05-05 23:12 | 33.76746 | -117.40341 | 15924 ft | 418 kts | 325° |
| 2026-05-05 23:12 | 33.79132 | -117.42336 | 15944 ft | 419 kts | 325° |
| 2026-05-05 23:12 | 33.81518 | -117.44331 | 15940 ft | 418 kts | 325° |
| 2026-05-05 23:12 | 33.83912 | -117.46339 | 15949 ft | 419 kts | 325° |
| 2026-05-05 23:13 | 33.86298 | -117.48339 | 15939 ft | 418 kts | 325° |
| 2026-05-05 23:13 | 33.88721 | -117.50288 | 15937 ft | 419 kts | 330° |
| 2026-05-05 23:13 | 33.91355 | -117.51657 | 15938 ft | 419 kts | 342° |
| 2026-05-05 23:13 | 33.94225 | -117.52305 | 15935 ft | 421 kts | 355° |
| 2026-05-05 23:14 | 33.97152 | -117.52024 | 15946 ft | 426 kts | 10° |
| 2026-05-05 23:14 | 34.00006 | -117.51169 | 15941 ft | 418 kts | 17° |
| 2026-05-05 23:14 | 34.02702 | -117.50069 | 15944 ft | 415 kts | 17° |
| 2026-05-05 23:14 | 34.05445 | -117.48980 | 15953 ft | 418 kts | 17° |
| 2026-05-05 23:15 | 34.08202 | -117.47883 | 15948 ft | 421 kts | 17° |
| 2026-05-05 23:15 | 34.10989 | -117.46775 | 15950 ft | 422 kts | 17° |
| 2026-05-05 23:15 | 34.13773 | -117.45670 | 15948 ft | 422 kts | 17° |
| 2026-05-05 23:15 | 34.16556 | -117.44565 | 15718 ft | 416 kts | 17° |
| 2026-05-05 23:16 | 34.19250 | -117.43482 | 15428 ft | 400 kts | 17° |
| 2026-05-05 23:16 | 34.21855 | -117.42437 | 15121 ft | 389 kts | 17° |
| 2026-05-05 23:16 | 34.24358 | -117.41431 | 14838 ft | 375 kts | 18° |
| 2026-05-05 23:16 | 34.26817 | -117.40476 | 14543 ft | 363 kts | 17° |
| 2026-05-05 23:17 | 34.29152 | -117.39586 | 14249 ft | 352 kts | 18° |
| 2026-05-05 23:17 | 34.31491 | -117.38699 | 13954 ft | 342 kts | 17° |
| 2026-05-05 23:17 | 34.33700 | -117.37863 | 13660 ft | 334 kts | 17° |
| 2026-05-05 23:17 | 34.35889 | -117.37035 | 13333 ft | 326 kts | 17° |
| 2026-05-05 23:18 | 34.38025 | -117.36220 | 13011 ft | 318 kts | 17° |
| 2026-05-05 23:18 | 34.40112 | -117.35415 | 12687 ft | 311 kts | 17° |
| 2026-05-05 23:18 | 34.42154 | -117.34618 | 12366 ft | 305 kts | 17° |
| 2026-05-05 23:18 | 34.44154 | -117.33832 | 12051 ft | 300 kts | 17° |
| 2026-05-05 23:19 | 34.46119 | -117.33049 | 11784 ft | 295 kts | 17° |
| 2026-05-05 23:19 | 34.48049 | -117.32274 | 11491 ft | 290 kts | 17° |
| 2026-05-05 23:19 | 34.49946 | -117.31501 | 11199 ft | 285 kts | 17° |
| 2026-05-05 23:19 | 34.51786 | -117.30744 | 10900 ft | 281 kts | 17° |
| 2026-05-05 23:20 | 34.53618 | -117.29988 | 10606 ft | 276 kts | 17° |
| 2026-05-05 23:20 | 34.55410 | -117.29243 | 10318 ft | 274 kts | 17° |
| 2026-05-05 23:20 | 34.57210 | -117.28492 | 10030 ft | 272 kts | 17° |
| 2026-05-05 23:20 | 34.58996 | -117.27740 | 9718 ft | 270 kts | 17° |
| 2026-05-05 23:21 | 34.60764 | -117.26999 | 9418 ft | 268 kts | 17° |
| 2026-05-05 23:21 | 34.62464 | -117.26244 | 9119 ft | 266 kts | 18° |
| 2026-05-05 23:21 | 34.64179 | -117.25489 | 8793 ft | 264 kts | 17° |
| 2026-05-05 23:21 | 34.64761 | -117.25232 | 8690 ft | 264 kts | 17° |